Time;durP1;ratioP1;P1;durP2;ratioP2;P2;SDS_P1;SDS_P2;PMS_P1;PMS_P2;Temp;Humidity;BMP_temperature;BMP_pressure;BME280_temperature;BME280_humidity;BME280_pressure;Samples;Min_cycle;Max_cycle;Signal;HPM_P1;HPM_P2
2023/04/06 00:01:20;;;;;;;14.02;8.82;;;1.90;99.90;;;;;;5124260;28;20385;-61
2023/04/06 00:03:45;;;;;;;13.30;8.93;;;1.90;99.90;;;;;;5122876;28;20032;-61
2023/04/06 00:06:11;;;;;;;15.93;9.23;;;1.90;99.90;;;;;;5103411;28;20043;-61
2023/04/06 00:08:37;;;;;;;15.35;9.60;;;1.90;99.90;;;;;;5130451;28;20038;-61
2023/04/06 00:11:02;;;;;;;12.85;8.88;;;1.90;99.90;;;;;;5120994;28;20044;-61
2023/04/06 00:13:28;;;;;;;13.27;9.15;;;1.90;99.90;;;;;;5121870;28;20036;-61
2023/04/06 00:15:53;;;;;;;12.60;9.15;;;1.90;99.90;;;;;;5121903;28;20038;-61
2023/04/06 00:18:19;;;;;;;13.40;9.13;;;1.80;99.90;;;;;;5108081;28;20043;-61
2023/04/06 00:20:45;;;;;;;13.13;8.98;;;1.80;99.90;;;;;;5120793;28;20478;-61
2023/04/06 00:23:10;;;;;;;15.27;8.85;;;1.70;99.90;;;;;;5128698;28;20390;-61
2023/04/06 00:25:36;;;;;;;13.43;8.80;;;1.80;99.90;;;;;;5123675;27;20434;-61
2023/04/06 00:28:01;;;;;;;13.38;9.38;;;1.70;99.90;;;;;;5110941;27;20081;-61
2023/04/06 00:30:27;;;;;;;14.88;9.18;;;1.70;99.90;;;;;;5129239;27;20043;-61
2023/04/06 00:32:52;;;;;;;14.10;9.15;;;1.70;99.90;;;;;;5123803;27;20125;-61
2023/04/06 00:35:18;;;;;;;13.50;8.95;;;1.60;99.90;;;;;;5109539;27;20047;-61
2023/04/06 00:37:46;;;;;;;13.35;8.82;;;1.60;99.90;;;;;;5125871;27;20039;-61
2023/04/06 00:40:12;;;;;;;13.88;9.30;;;1.50;99.90;;;;;;5124606;27;20078;-61
2023/04/06 00:42:37;;;;;;;13.45;8.55;;;1.50;99.90;;;;;;5126488;27;20075;-61
2023/04/06 00:45:03;;;;;;;13.70;8.98;;;1.50;99.90;;;;;;5107893;27;20530;-62
2023/04/06 00:47:29;;;;;;;12.82;8.30;;;1.50;99.90;;;;;;5104095;27;20381;-62
2023/04/06 00:49:55;;;;;;;13.80;8.63;;;1.50;99.90;;;;;;5108062;27;20039;-61
2023/04/06 00:52:21;;;;;;;12.85;8.48;;;1.50;99.90;;;;;;5125140;27;20087;-61
2023/04/06 00:54:46;;;;;;;13.38;9.00;;;1.40;99.90;;;;;;5125934;27;20055;-61
2023/04/06 00:57:13;;;;;;;14.48;8.38;;;1.30;99.90;;;;;;5125186;27;20130;-61
2023/04/06 00:59:40;;;;;;;11.18;8.13;;;1.30;99.90;;;;;;5126109;27;20477;-61
2023/04/06 01:02:06;;;;;;;15.15;8.57;;;1.30;99.90;;;;;;5125160;27;20035;-61
2023/04/06 01:04:32;;;;;;;14.48;8.85;;;1.40;99.90;;;;;;5125752;27;20067;-61
2023/04/06 01:06:58;;;;;;;12.73;8.90;;;1.30;99.90;;;;;;5124678;27;20043;-61
2023/04/06 01:09:23;;;;;;;14.25;8.70;;;1.30;99.90;;;;;;5106179;27;20614;-61
2023/04/06 01:11:49;;;;;;;13.13;8.50;;;1.30;99.90;;;;;;5106877;27;20040;-61
2023/04/06 01:14:15;;;;;;;15.77;8.60;;;1.30;99.90;;;;;;5108157;27;20041;-61
2023/04/06 01:16:41;;;;;;;15.25;8.90;;;1.30;99.90;;;;;;5102681;27;20035;-61
2023/04/06 01:19:13;;;;;;;14.48;9.05;;;1.20;99.90;;;;;;5128073;27;20390;-61
2023/04/06 01:21:40;;;;;;;13.10;8.63;;;1.30;99.90;;;;;;5121768;27;20367;-61
2023/04/06 01:24:09;;;;;;;14.27;8.57;;;1.30;99.90;;;;;;5107581;27;20096;-61
2023/04/06 01:26:35;;;;;;;14.70;8.35;;;1.30;99.90;;;;;;5122959;27;20035;-61
2023/04/06 01:29:02;;;;;;;13.23;8.70;;;1.20;99.90;;;;;;5125227;27;20027;-61
2023/04/06 01:31:28;;;;;;;12.02;8.27;;;1.20;99.90;;;;;;5125808;27;20080;-61
2023/04/06 01:33:54;;;;;;;12.32;8.57;;;1.20;99.90;;;;;;5125776;27;20031;-61
2023/04/06 01:36:20;;;;;;;15.40;8.73;;;1.10;99.90;;;;;;5125357;27;20120;-61
2023/04/06 01:38:45;;;;;;;11.85;8.18;;;1.10;99.90;;;;;;5125394;27;20426;-61
2023/04/06 01:41:11;;;;;;;13.93;9.20;;;1.10;99.90;;;;;;5108239;27;20119;-61
2023/04/06 01:43:36;;;;;;;12.55;8.60;;;1.10;99.90;;;;;;5108840;27;20134;-61
2023/04/06 01:46:02;;;;;;;15.68;9.52;;;1.00;99.90;;;;;;5109323;27;20039;-61
2023/04/06 01:48:28;;;;;;;15.00;9.93;;;1.00;99.90;;;;;;5121868;27;20035;-62
2023/04/06 01:50:54;;;;;;;15.00;8.65;;;1.00;99.90;;;;;;5126861;27;20066;-61
2023/04/06 01:53:20;;;;;;;14.45;8.90;;;1.00;99.90;;;;;;5123600;27;20035;-61
2023/04/06 01:55:46;;;;;;;14.48;8.80;;;1.00;99.90;;;;;;5107746;27;20042;-61
2023/04/06 01:58:12;;;;;;;15.18;9.43;;;1.00;99.90;;;;;;5123891;27;20054;-61
2023/04/06 02:00:37;;;;;;;16.65;9.40;;;1.00;99.90;;;;;;5125173;27;20031;-61
2023/04/06 02:03:03;;;;;;;14.77;8.75;;;1.00;99.90;;;;;;5106465;27;20039;-61
2023/04/06 02:05:30;;;;;;;16.92;9.05;;;1.00;99.90;;;;;;5125118;27;20038;-61
2023/04/06 02:07:56;;;;;;;16.00;9.25;;;1.00;99.90;;;;;;5107131;27;20039;-61
2023/04/06 02:10:22;;;;;;;12.82;9.02;;;1.00;99.90;;;;;;5125981;27;20093;-61
2023/04/06 02:12:48;;;;;;;14.63;8.73;;;1.00;99.90;;;;;;5104887;27;20054;-61
2023/04/06 02:15:14;;;;;;;14.70;9.00;;;0.90;99.90;;;;;;5123312;27;20043;-61
2023/04/06 02:17:40;;;;;;;13.13;8.85;;;1.00;99.90;;;;;;5125293;27;20049;-61
2023/04/06 02:20:07;;;;;;;14.13;8.50;;;0.90;99.90;;;;;;5104267;27;20114;-62
2023/04/06 02:22:33;;;;;;;13.95;8.90;;;0.90;99.90;;;;;;5105126;27;20051;-61
2023/04/06 02:24:58;;;;;;;14.55;8.75;;;0.90;99.90;;;;;;5125721;27;20054;-63
2023/04/06 02:27:24;;;;;;;14.68;9.60;;;0.90;99.90;;;;;;5107373;27;20458;-63
2023/04/06 02:29:50;;;;;;;15.40;10.35;;;0.90;99.90;;;;;;5107045;27;20046;-63
2023/04/06 02:32:15;;;;;;;14.90;8.80;;;0.90;99.90;;;;;;5124602;27;20545;-62
2023/04/06 02:34:40;;;;;;;13.77;9.20;;;0.90;99.90;;;;;;5123840;27;20043;-61
2023/04/06 02:37:06;;;;;;;15.10;9.55;;;0.80;99.90;;;;;;5103520;27;20913;-62
2023/04/06 02:39:32;;;;;;;16.95;10.05;;;0.80;99.90;;;;;;5122803;27;20168;-61
2023/04/06 02:41:57;;;;;;;14.95;8.93;;;0.90;99.90;;;;;;5124728;27;20039;-62
2023/04/06 02:44:23;;;;;;;15.63;9.85;;;0.80;99.90;;;;;;5124062;27;20716;-61
2023/04/06 02:46:48;;;;;;;14.60;9.57;;;0.80;99.90;;;;;;5126082;27;20031;-62
2023/04/06 02:49:14;;;;;;;15.32;9.60;;;0.80;99.90;;;;;;5106547;27;20058;-62
2023/04/06 02:51:40;;;;;;;14.65;9.60;;;0.80;99.90;;;;;;5106260;27;20473;-62
2023/04/06 02:54:05;;;;;;;18.05;9.32;;;0.80;99.90;;;;;;5105541;27;20062;-61
2023/04/06 02:56:31;;;;;;;16.15;9.27;;;0.70;99.90;;;;;;5124078;27;20038;-62
2023/04/06 02:58:56;;;;;;;14.18;9.35;;;0.70;99.90;;;;;;5105693;27;20477;-62
2023/04/06 03:01:22;;;;;;;15.23;9.70;;;0.70;99.90;;;;;;5125214;27;20043;-61
2023/04/06 03:03:47;;;;;;;12.98;8.95;;;0.70;99.90;;;;;;5104183;27;20042;-62
2023/04/06 03:06:13;;;;;;;16.10;8.93;;;0.60;99.90;;;;;;5127168;27;20393;-61
2023/04/06 03:08:39;;;;;;;17.30;10.02;;;0.70;99.90;;;;;;5118567;27;20043;-61
2023/04/06 03:11:04;;;;;;;16.67;9.10;;;0.60;99.90;;;;;;5121484;27;20597;-62
2023/04/06 03:13:30;;;;;;;17.63;10.10;;;0.60;99.90;;;;;;5122369;27;20047;-62
2023/04/06 03:15:55;;;;;;;16.35;9.52;;;0.60;99.90;;;;;;5121838;27;20039;-62
2023/04/06 03:18:23;;;;;;;14.63;9.35;;;0.60;99.90;;;;;;5102076;27;20065;-62
2023/04/06 03:20:49;;;;;;;15.23;9.45;;;0.70;99.90;;;;;;5126092;27;20051;-61
2023/04/06 03:23:15;;;;;;;14.52;9.52;;;0.70;99.90;;;;;;5124869;27;20047;-61
2023/04/06 03:25:41;;;;;;;18.85;10.02;;;0.60;99.90;;;;;;5108975;28;20040;-61
2023/04/06 03:28:07;;;;;;;16.45;10.30;;;0.60;99.90;;;;;;5124013;27;20038;-62
2023/04/06 03:30:34;;;;;;;15.27;9.20;;;0.60;99.90;;;;;;5091830;28;20398;-61
2023/04/06 03:33:00;;;;;;;16.95;9.20;;;0.60;99.90;;;;;;5099258;28;20128;-62
2023/04/06 03:35:25;;;;;;;16.27;9.13;;;0.60;99.90;;;;;;5123965;27;20419;-62
2023/04/06 03:37:51;;;;;;;14.70;9.55;;;0.60;99.90;;;;;;5125895;27;20049;-62
2023/04/06 03:40:16;;;;;;;16.17;9.95;;;0.60;99.90;;;;;;5122611;27;20035;-62
2023/04/06 03:42:42;;;;;;;16.98;9.80;;;0.60;99.90;;;;;;5103175;28;20039;-62
2023/04/06 03:45:08;;;;;;;15.55;9.85;;;0.50;99.90;;;;;;5122671;27;20138;-61
2023/04/06 03:47:33;;;;;;;14.23;9.48;;;0.50;99.90;;;;;;5124567;27;20043;-62
2023/04/06 03:49:59;;;;;;;18.25;9.60;;;0.50;99.90;;;;;;5123109;27;20039;-61
2023/04/06 03:52:25;;;;;;;16.67;9.35;;;0.50;99.90;;;;;;5122607;27;20509;-62
2023/04/06 03:54:50;;;;;;;13.63;9.10;;;0.40;99.90;;;;;;5125333;27;20039;-62
2023/04/06 03:57:16;;;;;;;16.85;9.70;;;0.40;99.90;;;;;;5120273;27;20046;-61
2023/04/06 03:59:41;;;;;;;16.63;9.90;;;0.40;99.90;;;;;;5117182;27;20042;-61
2023/04/06 04:02:07;;;;;;;17.15;10.48;;;0.30;99.90;;;;;;5124905;27;20498;-61
2023/04/06 04:04:32;;;;;;;19.10;10.55;;;0.30;99.90;;;;;;5105541;27;20039;-62
2023/04/06 04:06:58;;;;;;;15.77;10.13;;;0.30;99.90;;;;;;5126769;27;20035;-62
2023/04/06 04:09:23;;;;;;;16.45;10.43;;;0.30;99.90;;;;;;5109144;27;20112;-62
2023/04/06 04:11:49;;;;;;;16.73;10.00;;;0.30;99.90;;;;;;5123904;27;20474;-61
2023/04/06 04:14:14;;;;;;;19.10;10.50;;;0.30;99.90;;;;;;5105426;27;20035;-61
2023/04/06 04:16:41;;;;;;;19.60;10.70;;;0.20;99.90;;;;;;5126861;27;20036;-61
2023/04/06 04:19:07;;;;;;;18.60;9.82;;;0.30;99.90;;;;;;5109122;27;20039;-62
2023/04/06 04:21:32;;;;;;;16.05;9.77;;;0.30;99.90;;;;;;5109484;27;20046;-61
2023/04/06 04:23:58;;;;;;;18.08;10.55;;;0.30;99.90;;;;;;5104147;27;20060;-61
2023/04/06 04:26:23;;;;;;;19.95;9.80;;;0.30;99.90;;;;;;5109333;27;20035;-61
2023/04/06 04:28:49;;;;;;;17.02;10.90;;;0.30;99.90;;;;;;5126825;27;20034;-61
2023/04/06 04:31:17;;;;;;;22.02;10.98;;;0.30;99.90;;;;;;5132923;27;20045;-61
2023/04/06 04:33:42;;;;;;;16.48;9.88;;;0.30;99.90;;;;;;5128070;27;20042;-61
2023/04/06 04:36:08;;;;;;;18.83;11.07;;;0.30;99.90;;;;;;5095286;27;20043;-61
2023/04/06 04:38:34;;;;;;;16.98;10.35;;;0.30;99.90;;;;;;5113629;27;20080;-62
2023/04/06 04:40:59;;;;;;;18.00;10.40;;;0.30;99.90;;;;;;5130172;27;20428;-61
2023/04/06 04:43:25;;;;;;;19.98;11.13;;;0.30;99.90;;;;;;5131289;27;20476;-61
2023/04/06 04:45:52;;;;;;;19.08;10.80;;;0.30;99.90;;;;;;5133169;27;20038;-61
2023/04/06 04:48:18;;;;;;;18.08;11.05;;;0.30;99.90;;;;;;5110074;27;20370;-61
2023/04/06 04:50:44;;;;;;;21.10;11.50;;;0.30;99.90;;;;;;5102821;27;20044;-61
2023/04/06 04:53:09;;;;;;;18.52;11.10;;;0.20;99.90;;;;;;5087750;27;20397;-62
2023/04/06 04:55:35;;;;;;;18.73;10.75;;;0.20;99.90;;;;;;5125041;27;21284;-61
2023/04/06 04:58:02;;;;;;;16.17;10.43;;;0.20;99.90;;;;;;5120484;27;20035;-61
2023/04/06 05:00:27;;;;;;;16.38;10.88;;;0.20;99.90;;;;;;5104013;27;20447;-62
2023/04/06 05:02:53;;;;;;;17.55;11.02;;;0.20;99.90;;;;;;5123316;27;20114;-61
2023/04/06 05:05:18;;;;;;;17.95;10.82;;;0.20;99.90;;;;;;5123887;27;20126;-61
2023/04/06 05:07:44;;;;;;;17.85;10.70;;;0.20;99.90;;;;;;5102982;27;20035;-61
2023/04/06 05:10:10;;;;;;;20.88;11.18;;;0.20;99.90;;;;;;5119614;27;20040;-61
2023/04/06 05:12:35;;;;;;;20.98;11.40;;;0.20;99.90;;;;;;5125985;27;20023;-61
2023/04/06 05:15:01;;;;;;;20.80;11.35;;;0.20;99.90;;;;;;5106156;27;20042;-62
2023/04/06 05:17:26;;;;;;;22.05;11.70;;;0.20;99.90;;;;;;5107847;27;20031;-61
2023/04/06 05:19:52;;;;;;;18.63;10.85;;;0.30;99.90;;;;;;5119358;27;20043;-62
2023/04/06 05:22:17;;;;;;;17.63;10.30;;;0.30;99.90;;;;;;5121106;27;20027;-61
2023/04/06 05:24:43;;;;;;;17.13;10.68;;;0.30;99.90;;;;;;5102865;27;20054;-61
2023/04/06 05:27:09;;;;;;;21.35;11.10;;;0.30;99.90;;;;;;5102393;27;20039;-61
2023/04/06 05:29:35;;;;;;;18.30;10.52;;;0.40;99.90;;;;;;5101755;27;20135;-62
2023/04/06 05:32:01;;;;;;;19.38;11.68;;;0.40;99.90;;;;;;5098572;27;20047;-62
2023/04/06 05:34:27;;;;;;;18.05;11.13;;;0.40;99.90;;;;;;5105151;27;20040;-62
2023/04/06 05:36:52;;;;;;;20.60;11.20;;;0.40;99.90;;;;;;5102379;27;20066;-62
2023/04/06 05:39:18;;;;;;;20.48;11.60;;;0.40;99.90;;;;;;5102466;27;20047;-61
2023/04/06 05:41:43;;;;;;;17.60;11.18;;;0.50;99.90;;;;;;5119788;27;20062;-62
2023/04/06 05:44:09;;;;;;;21.35;11.82;;;0.50;99.90;;;;;;5102481;27;20336;-62
2023/04/06 05:46:34;;;;;;;18.92;11.25;;;0.60;99.90;;;;;;5105402;27;20390;-62
2023/04/06 05:49:00;;;;;;;19.02;11.68;;;0.70;99.90;;;;;;5120138;27;20127;-62
2023/04/06 05:51:27;;;;;;;19.30;11.27;;;0.70;99.90;;;;;;5125733;27;20745;-61
2023/04/06 05:53:53;;;;;;;16.08;10.88;;;0.80;99.90;;;;;;5108855;27;20047;-62
2023/04/06 05:56:18;;;;;;;18.85;11.52;;;0.80;99.90;;;;;;5121568;27;20362;-61
2023/04/06 05:58:44;;;;;;;21.48;11.38;;;0.90;99.90;;;;;;5108538;27;20035;-62
2023/04/06 06:01:10;;;;;;;19.30;11.65;;;1.00;99.90;;;;;;5105242;27;20050;-62
2023/04/06 06:03:35;;;;;;;18.15;11.70;;;1.00;99.90;;;;;;5107514;27;20146;-62
2023/04/06 06:06:02;;;;;;;18.10;11.02;;;1.00;99.90;;;;;;5123692;27;20120;-62
2023/04/06 06:08:28;;;;;;;19.13;11.68;;;1.10;99.90;;;;;;5126291;27;20031;-62
2023/04/06 06:10:54;;;;;;;18.55;10.88;;;1.20;99.90;;;;;;5125199;27;20031;-61
2023/04/06 06:13:20;;;;;;;19.40;11.40;;;1.20;99.90;;;;;;5125408;27;20071;-62
2023/04/06 06:15:46;;;;;;;20.35;12.02;;;1.30;99.90;;;;;;5122887;27;20065;-61
2023/04/06 06:18:12;;;;;;;20.75;11.98;;;1.30;99.90;;;;;;5112977;27;20062;-62
2023/04/06 06:20:37;;;;;;;19.55;12.63;;;1.40;99.90;;;;;;5105446;27;20039;-62
2023/04/06 06:23:03;;;;;;;19.15;11.52;;;1.50;99.90;;;;;;5125900;27;20038;-62
2023/04/06 06:25:30;;;;;;;21.30;12.02;;;1.50;99.90;;;;;;5104480;27;20039;-61
2023/04/06 06:27:56;;;;;;;20.80;12.75;;;1.60;99.90;;;;;;5124205;27;20031;-61
2023/04/06 06:30:22;;;;;;;19.83;12.15;;;1.70;99.90;;;;;;5103038;27;20465;-62
2023/04/06 06:32:47;;;;;;;20.38;11.80;;;1.80;99.90;;;;;;5126166;27;20027;-62
2023/04/06 06:35:13;;;;;;;20.10;12.52;;;1.80;99.90;;;;;;5105558;27;20051;-62
2023/04/06 06:37:38;;;;;;;20.88;12.20;;;1.90;99.90;;;;;;5107968;27;20461;-62
2023/04/06 06:40:04;;;;;;;20.48;12.80;;;2.10;99.90;;;;;;5104758;27;20120;-62
2023/04/06 06:42:30;;;;;;;20.85;12.70;;;2.10;99.90;;;;;;5107871;27;20054;-62
2023/04/06 06:44:56;;;;;;;22.88;12.65;;;2.30;99.90;;;;;;5123235;27;20123;-62
2023/04/06 06:47:21;;;;;;;22.65;12.50;;;2.40;99.90;;;;;;5106243;27;20070;-62
2023/04/06 06:49:47;;;;;;;23.58;13.52;;;2.50;99.90;;;;;;5122466;27;20047;-62
2023/04/06 06:52:12;;;;;;;22.48;12.80;;;2.60;99.90;;;;;;5123314;27;20142;-62
2023/04/06 06:54:37;;;;;;;23.70;13.13;;;2.70;99.90;;;;;;5124277;27;20031;-62
2023/04/06 06:57:03;;;;;;;23.50;13.43;;;2.90;99.90;;;;;;5106726;27;20031;-62
2023/04/06 06:59:28;;;;;;;20.35;13.95;;;3.00;99.90;;;;;;5127555;27;20470;-62
2023/04/06 07:01:54;;;;;;;24.17;13.55;;;3.10;99.90;;;;;;5120932;27;20027;-62
2023/04/06 07:04:20;;;;;;;22.75;13.15;;;3.30;99.90;;;;;;5122727;27;20045;-62
2023/04/06 07:06:45;;;;;;;22.83;13.85;;;3.50;99.90;;;;;;5124724;27;20038;-62
2023/04/06 07:09:11;;;;;;;25.20;13.98;;;3.60;99.90;;;;;;5122520;27;20474;-62
2023/04/06 07:11:36;;;;;;;23.35;13.98;;;3.80;99.90;;;;;;5106095;27;20029;-62
2023/04/06 07:14:02;;;;;;;23.08;13.93;;;3.90;99.90;;;;;;5121374;27;20035;-62
2023/04/06 07:16:27;;;;;;;25.15;14.45;;;4.10;99.90;;;;;;5083066;27;20456;-62
2023/04/06 07:18:53;;;;;;;24.48;13.75;;;4.30;99.90;;;;;;5088670;28;20041;-62
2023/04/06 07:21:18;;;;;;;23.20;13.50;;;4.50;99.90;;;;;;5105117;27;20047;-62
2023/04/06 07:23:44;;;;;;;25.08;13.75;;;4.70;99.90;;;;;;5121464;27;20801;-62
2023/04/06 07:26:10;;;;;;;26.10;14.50;;;4.80;99.90;;;;;;5123016;27;20092;-62
2023/04/06 07:28:35;;;;;;;22.98;13.85;;;5.00;99.90;;;;;;5125694;27;20042;-62
2023/04/06 07:31:02;;;;;;;24.33;14.20;;;5.20;99.90;;;;;;5108202;28;20071;-63
2023/04/06 07:33:29;;;;;;;26.73;14.77;;;5.40;99.90;;;;;;5129175;27;20083;-62
2023/04/06 07:35:56;;;;;;;23.48;14.68;;;5.60;99.90;;;;;;5129045;27;20438;-63
2023/04/06 07:38:22;;;;;;;22.67;14.57;;;5.70;99.90;;;;;;5111903;27;20066;-63
2023/04/06 07:40:47;;;;;;;22.67;14.52;;;5.90;99.90;;;;;;5133570;27;20039;-63
2023/04/06 07:43:13;;;;;;;22.95;14.60;;;6.10;99.90;;;;;;5132916;27;20047;-63
2023/04/06 07:45:38;;;;;;;24.80;14.15;;;6.30;99.90;;;;;;5127587;27;20031;-62
2023/04/06 07:48:04;;;;;;;22.98;14.75;;;6.40;99.90;;;;;;5123208;27;20043;-62
2023/04/06 07:50:30;;;;;;;22.17;14.15;;;6.60;99.90;;;;;;5124673;27;20214;-62
2023/04/06 07:52:55;;;;;;;27.95;15.52;;;6.80;99.90;;;;;;5111474;27;20449;-62
2023/04/06 07:55:21;;;;;;;23.70;15.10;;;7.10;99.90;;;;;;5109418;27;20047;-63
2023/04/06 07:57:46;;;;;;;22.65;14.57;;;7.30;99.90;;;;;;5133629;27;20031;-63
2023/04/06 08:00:12;;;;;;;23.35;15.25;;;7.40;99.90;;;;;;5107422;27;20513;-63
2023/04/06 08:02:38;;;;;;;22.35;13.85;;;7.50;99.90;;;;;;5116003;27;20027;-62
2023/04/06 08:05:04;;;;;;;22.30;14.63;;;7.70;99.90;;;;;;5111421;27;20062;-63
2023/04/06 08:07:29;;;;;;;23.75;15.50;;;7.80;99.90;;;;;;5123711;27;20038;-64
2023/04/06 08:09:55;;;;;;;23.17;14.57;;;7.90;99.90;;;;;;5129327;27;20046;-62
2023/04/06 08:12:21;;;;;;;26.23;15.75;;;8.00;99.90;;;;;;5129629;27;20339;-63
2023/04/06 08:14:47;;;;;;;23.75;14.52;;;8.10;99.90;;;;;;5109954;27;20038;-62
2023/04/06 08:17:13;;;;;;;24.77;15.32;;;8.20;99.90;;;;;;5123322;27;20035;-63
2023/04/06 08:19:38;;;;;;;22.40;15.35;;;8.40;99.90;;;;;;5115473;27;20413;-63
2023/04/06 08:22:04;;;;;;;23.08;14.68;;;8.60;99.90;;;;;;5132158;27;20500;-63
2023/04/06 08:24:30;;;;;;;24.45;15.18;;;8.70;99.90;;;;;;5118761;27;20043;-62
2023/04/06 08:26:56;;;;;;;25.85;14.52;;;8.90;99.90;;;;;;5129091;27;20493;-63
2023/04/06 08:29:21;;;;;;;25.30;14.88;;;9.00;99.90;;;;;;5108474;27;20035;-63
2023/04/06 08:31:47;;;;;;;24.85;15.77;;;9.20;99.90;;;;;;5116566;27;20100;-64
2023/04/06 08:34:12;;;;;;;24.45;15.90;;;9.30;99.90;;;;;;5103475;27;20039;-63
2023/04/06 08:36:38;;;;;;;25.15;16.60;;;9.40;99.90;;;;;;5105364;27;20046;-63
2023/04/06 08:39:03;;;;;;;25.13;15.93;;;9.60;99.90;;;;;;5114205;27;20031;-63
2023/04/06 08:41:29;;;;;;;25.17;16.05;;;9.60;99.90;;;;;;5100627;27;20039;-63
2023/04/06 08:43:58;;;;;;;27.85;16.13;;;9.70;99.90;;;;;;5124814;27;20096;-62
2023/04/06 08:46:31;;;;;;;26.70;16.98;;;9.70;99.90;;;;;;5133268;27;20035;-63
2023/04/06 08:49:00;;;;;;;26.60;15.98;;;9.80;99.90;;;;;;5111239;27;20495;-63
2023/04/06 08:51:27;;;;;;;28.30;17.15;;;9.80;99.90;;;;;;5113445;27;20118;-64
2023/04/06 08:53:55;;;;;;;25.15;16.77;;;9.80;99.90;;;;;;5091981;27;20047;-63
2023/04/06 08:56:22;;;;;;;29.23;17.50;;;9.90;99.90;;;;;;5116659;27;20035;-63
2023/04/06 08:58:48;;;;;;;26.70;16.90;;;10.00;99.90;;;;;;5127845;27;20117;-63
2023/04/06 09:01:16;;;;;;;24.30;16.80;;;10.10;99.90;;;;;;5131643;27;20082;-63
2023/04/06 09:03:42;;;;;;;30.05;16.90;;;10.30;99.90;;;;;;5131380;27;20067;-64
2023/04/06 09:06:09;;;;;;;26.45;16.60;;;10.50;99.90;;;;;;5122697;27;20094;-64
2023/04/06 09:08:35;;;;;;;28.02;17.02;;;10.70;99.90;;;;;;5132191;27;20546;-63
2023/04/06 09:11:04;;;;;;;27.48;17.20;;;10.90;99.90;;;;;;5132630;27;20483;-64
2023/04/06 09:13:31;;;;;;;24.27;16.80;;;11.00;99.90;;;;;;5109531;27;20107;-64
2023/04/06 09:16:04;;;;;;;26.73;17.60;;;11.10;99.90;;;;;;5128342;27;20027;-63
2023/04/06 09:18:30;;;;;;;27.60;17.13;;;11.20;99.90;;;;;;5120799;27;20549;-64
2023/04/06 09:20:58;;;;;;;29.70;17.85;;;11.40;99.90;;;;;;5108268;28;20624;-65
2023/04/06 09:23:23;;;;;;;28.05;18.55;;;11.50;99.90;;;;;;5114321;27;20100;-64
2023/04/06 09:25:49;;;;;;;27.40;18.48;;;11.60;99.90;;;;;;5110774;27;20035;-65
2023/04/06 09:28:15;;;;;;;25.20;16.45;;;11.60;99.90;;;;;;5108108;27;20035;-65
2023/04/06 09:30:49;;;;;;;28.83;18.42;;;11.60;99.90;;;;;;5130207;27;20447;-63
2023/04/06 09:33:22;;;;;;;30.85;18.92;;;11.70;99.90;;;;;;5107779;27;20031;-65
2023/04/06 09:35:51;;;;;;;31.15;19.00;;;11.80;99.90;;;;;;5124778;27;20100;-64
2023/04/06 09:38:16;;;;;;;30.70;18.52;;;11.80;99.90;;;;;;5130453;27;20035;-64
2023/04/06 09:40:50;;;;;;;30.20;19.27;;;11.80;99.90;;;;;;5107050;27;20046;-64
2023/04/06 09:43:26;;;;;;;29.65;18.02;;;11.90;99.90;;;;;;5097777;27;20038;-64
2023/04/06 09:45:53;;;;;;;31.08;18.85;;;11.80;99.90;;;;;;5113627;28;20032;-63
2023/04/06 09:48:20;;;;;;;31.17;18.63;;;11.70;99.90;;;;;;5122560;27;20032;-65
2023/04/06 09:50:48;;;;;;;32.08;19.40;;;11.70;99.90;;;;;;5123705;27;20035;-65
2023/04/06 09:53:15;;;;;;;32.47;20.00;;;11.70;99.90;;;;;;5105120;27;20118;-65
2023/04/06 09:55:43;;;;;;;30.40;18.95;;;11.70;99.90;;;;;;5095035;28;20119;-65
2023/04/06 09:58:15;;;;;;;32.28;19.58;;;11.70;99.90;;;;;;5113328;27;20126;-64
2023/04/06 10:01:02;;;;;;;29.08;19.15;;;11.70;99.90;;;;;;5128015;27;20042;-64
2023/04/06 10:03:55;;;;;;;29.17;18.40;;;11.90;99.90;;;;;;5104656;27;20056;-65
2023/04/06 10:06:23;;;;;;;29.05;18.60;;;12.10;99.90;;;;;;5111938;27;20040;-64
2023/04/06 10:08:51;;;;;;;31.33;19.15;;;12.20;99.90;;;;;;5132078;27;20039;-64
2023/04/06 10:11:17;;;;;;;31.50;18.77;;;12.30;99.90;;;;;;5124616;27;20089;-64
2023/04/06 10:13:45;;;;;;;31.65;19.70;;;12.30;99.90;;;;;;5128065;27;20093;-66
2023/04/06 10:16:13;;;;;;;31.33;18.85;;;12.30;99.90;;;;;;5105058;28;20096;-64
2023/04/06 10:18:41;;;;;;;32.42;20.30;;;12.40;99.90;;;;;;5101353;27;20038;-65
2023/04/06 10:21:11;;;;;;;30.55;19.83;;;12.30;99.90;;;;;;5109950;27;20035;-64
2023/04/06 10:23:46;;;;;;;30.48;19.98;;;12.40;99.90;;;;;;5112523;27;20035;-64
2023/04/06 10:26:17;;;;;;;32.42;20.30;;;12.50;99.90;;;;;;5113892;27;20051;-65
2023/04/06 10:28:45;;;;;;;30.10;19.95;;;12.60;99.90;;;;;;5123250;27;20059;-64
2023/04/06 10:31:11;;;;;;;32.53;20.13;;;12.70;99.90;;;;;;5116584;27;20046;-65
2023/04/06 10:33:36;;;;;;;32.58;19.60;;;12.80;99.90;;;;;;5127741;27;20582;-65
2023/04/06 10:36:12;;;;;;;30.90;19.52;;;13.00;99.90;;;;;;5110852;27;20124;-64
2023/04/06 10:38:38;;;;;;;38.13;21.02;;;13.10;99.90;;;;;;5103679;27;20046;-64
2023/04/06 10:41:05;;;;;;;32.00;19.50;;;13.20;99.90;;;;;;5117270;27;20035;-66
2023/04/06 10:43:37;;;;;;;33.00;19.77;;;13.40;99.90;;;;;;5130595;27;20031;-65
2023/04/06 10:46:04;;;;;;;31.42;19.38;;;13.40;99.90;;;;;;5131528;27;20233;-65
2023/04/06 10:48:45;;;;;;;32.70;19.80;;;13.50;99.90;;;;;;5108811;27;20489;-65
2023/04/06 10:51:15;;;;;;;29.15;19.40;;;13.50;99.90;;;;;;5125055;27;20043;-65
2023/04/06 10:53:43;;;;;;;35.00;20.55;;;13.60;99.90;;;;;;5107891;27;20046;-64
2023/04/06 10:56:14;;;;;;;29.90;19.30;;;13.70;99.90;;;;;;5113568;27;20130;-65
2023/04/06 10:58:50;;;;;;;29.20;19.10;;;13.80;99.90;;;;;;5107670;27;20041;-65
2023/04/06 11:01:17;;;;;;;34.50;20.25;;;13.80;99.90;;;;;;5128433;27;20031;-65
2023/04/06 11:03:44;;;;;;;31.17;20.05;;;13.90;99.90;;;;;;5124755;27;20039;-65
2023/04/06 11:06:10;;;;;;;34.95;20.17;;;14.00;99.90;;;;;;5112497;27;20087;-66
2023/04/06 11:08:37;;;;;;;31.88;19.65;;;14.00;99.90;;;;;;5125009;27;20031;-65
2023/04/06 11:11:15;;;;;;;31.30;19.80;;;14.10;99.90;;;;;;5110175;27;20410;-64
2023/04/06 11:13:50;;;;;;;33.20;20.38;;;14.10;99.90;;;;;;5092823;28;20100;-65
2023/04/06 11:16:20;;;;;;;32.13;20.38;;;14.20;99.90;;;;;;5123410;27;20508;-66
2023/04/06 11:18:55;;;;;;;31.73;19.77;;;14.20;99.90;;;;;;5103059;28;20170;-65
2023/04/06 11:21:34;;;;;;;30.13;19.27;;;14.40;99.90;;;;;;5108067;27;20058;-65
2023/04/06 11:24:24;;;;;;;33.95;19.75;;;14.60;99.90;;;;;;5105315;27;20297;-65
2023/04/06 11:26:52;;;;;;;32.97;21.00;;;14.70;99.90;;;;;;5120916;27;20041;-65
2023/04/06 11:29:23;;;;;;;32.40;20.08;;;14.80;99.90;;;;;;5126096;27;20203;-66
2023/04/06 11:31:50;;;;;;;32.05;20.50;;;14.90;99.90;;;;;;5129125;27;20031;-66
2023/04/06 11:34:21;;;;;;;31.67;20.85;;;14.90;99.90;;;;;;5109305;28;20066;-65
2023/04/06 11:36:49;;;;;;;33.00;20.85;;;14.90;99.90;;;;;;5124471;27;20110;-65
2023/04/06 11:39:21;;;;;;;34.00;21.15;;;14.80;99.90;;;;;;5110684;28;20043;-65
2023/04/06 11:41:50;;;;;;;35.42;20.77;;;14.70;99.90;;;;;;5109170;27;20039;-64
2023/04/06 11:44:35;;;;;;;33.58;20.63;;;14.60;99.90;;;;;;5109451;28;20500;-65
2023/04/06 11:47:03;;;;;;;33.30;19.98;;;14.50;99.90;;;;;;5111576;28;20040;-65
2023/04/06 11:49:30;;;;;;;36.03;20.30;;;14.50;99.90;;;;;;5117833;27;20027;-64
2023/04/06 11:51:57;;;;;;;33.40;19.65;;;14.50;99.90;;;;;;5110976;28;20035;-65
2023/04/06 11:54:37;;;;;;;31.88;20.02;;;14.60;99.90;;;;;;5096988;28;20048;-64
2023/04/06 11:57:04;;;;;;;31.17;18.60;;;14.50;99.90;;;;;;5121246;27;20039;-65
2023/04/06 11:59:31;;;;;;;37.80;21.00;;;14.50;99.90;;;;;;5103050;28;20082;-64
2023/04/06 12:01:57;;;;;;;32.83;20.15;;;14.60;99.90;;;;;;5125030;28;20119;-64
2023/04/06 12:04:23;;;;;;;33.92;19.40;;;14.50;99.90;;;;;;5105509;28;20122;-66
2023/04/06 12:06:48;;;;;;;29.88;18.67;;;14.40;99.90;;;;;;5126890;27;20038;-64
2023/04/06 12:09:14;;;;;;;35.42;19.30;;;14.40;99.90;;;;;;5109732;28;20039;-65
2023/04/06 12:11:40;;;;;;;30.17;19.00;;;14.30;99.90;;;;;;5100009;27;20038;-65
2023/04/06 12:14:07;;;;;;;34.25;19.75;;;14.20;99.90;;;;;;5107045;27;20397;-65
2023/04/06 12:16:34;;;;;;;30.60;19.25;;;14.20;99.90;;;;;;5104825;27;20160;-65
2023/04/06 12:18:59;;;;;;;32.08;19.30;;;14.20;99.90;;;;;;5123098;27;20512;-65
2023/04/06 12:21:28;;;;;;;32.92;20.45;;;14.10;99.90;;;;;;5111760;27;20039;-65
2023/04/06 12:23:53;;;;;;;29.85;18.38;;;14.10;99.90;;;;;;5132394;27;20364;-64
2023/04/06 12:26:19;;;;;;;33.25;18.85;;;14.10;99.90;;;;;;5131818;27;20542;-65
2023/04/06 12:28:45;;;;;;;33.42;17.00;;;13.80;99.90;;;;;;5121151;27;20046;-64
2023/04/06 12:31:18;;;;;;;30.08;17.00;;;13.70;99.90;;;;;;5117997;27;20039;-64
2023/04/06 12:33:46;;;;;;;26.40;13.77;;;13.10;99.90;;;;;;5123654;27;20075;-64
2023/04/06 12:36:13;;;;;;;20.80;12.68;;;13.10;99.90;;;;;;5114217;27;20047;-64